sensor_id;sensor_type;location;lat;lon;timestamp;P1;durP1;ratioP1;P2;durP2;ratioP2
11984;SDS011;6052;53.246;10.368;2024-03-02T00:02:15;24.87;;;13.00;;
11984;SDS011;6052;53.246;10.368;2024-03-02T00:04:45;21.10;;;12.43;;
11984;SDS011;6052;53.246;10.368;2024-03-02T00:07:14;24.30;;;13.10;;
11984;SDS011;6052;53.246;10.368;2024-03-02T00:09:44;27.20;;;13.90;;
11984;SDS011;6052;53.246;10.368;2024-03-02T00:12:15;23.77;;;13.77;;
11984;SDS011;6052;53.246;10.368;2024-03-02T00:14:48;26.57;;;14.10;;
11984;SDS011;6052;53.246;10.368;2024-03-02T00:17:21;26.60;;;13.63;;
11984;SDS011;6052;53.246;10.368;2024-03-02T00:19:54;25.10;;;13.33;;
11984;SDS011;6052;53.246;10.368;2024-03-02T00:22:24;24.10;;;13.13;;
11984;SDS011;6052;53.246;10.368;2024-03-02T00:24:54;26.60;;;14.40;;
11984;SDS011;6052;53.246;10.368;2024-03-02T00:27:27;28.83;;;13.80;;
11984;SDS011;6052;53.246;10.368;2024-03-02T00:29:57;24.07;;;13.03;;
11984;SDS011;6052;53.246;10.368;2024-03-02T00:32:27;27.63;;;14.00;;
11984;SDS011;6052;53.246;10.368;2024-03-02T00:34:58;25.13;;;13.17;;
11984;SDS011;6052;53.246;10.368;2024-03-02T00:37:28;26.53;;;14.97;;
11984;SDS011;6052;53.246;10.368;2024-03-02T00:39:59;24.17;;;14.63;;
11984;SDS011;6052;53.246;10.368;2024-03-02T00:42:33;26.47;;;13.97;;
11984;SDS011;6052;53.246;10.368;2024-03-02T00:45:05;28.37;;;14.50;;
11984;SDS011;6052;53.246;10.368;2024-03-02T00:47:37;21.53;;;13.10;;
11984;SDS011;6052;53.246;10.368;2024-03-02T00:50:08;26.17;;;14.20;;
11984;SDS011;6052;53.246;10.368;2024-03-02T00:52:51;22.83;;;13.37;;
11984;SDS011;6052;53.246;10.368;2024-03-02T00:55:22;27.20;;;14.70;;
11984;SDS011;6052;53.246;10.368;2024-03-02T00:57:54;31.77;;;14.97;;
11984;SDS011;6052;53.246;10.368;2024-03-02T01:00:27;25.47;;;14.33;;
11984;SDS011;6052;53.246;10.368;2024-03-02T01:02:57;23.97;;;13.37;;
11984;SDS011;6052;53.246;10.368;2024-03-02T01:05:28;27.77;;;14.43;;
11984;SDS011;6052;53.246;10.368;2024-03-02T01:07:58;29.43;;;15.60;;
11984;SDS011;6052;53.246;10.368;2024-03-02T01:10:28;27.87;;;14.37;;
11984;SDS011;6052;53.246;10.368;2024-03-02T01:13:01;27.50;;;14.73;;
11984;SDS011;6052;53.246;10.368;2024-03-02T01:15:31;24.83;;;13.57;;
11984;SDS011;6052;53.246;10.368;2024-03-02T01:18:03;28.70;;;15.03;;
11984;SDS011;6052;53.246;10.368;2024-03-02T01:20:35;29.53;;;15.00;;
11984;SDS011;6052;53.246;10.368;2024-03-02T01:23:10;24.90;;;13.47;;
11984;SDS011;6052;53.246;10.368;2024-03-02T01:25:40;29.20;;;15.03;;
11984;SDS011;6052;53.246;10.368;2024-03-02T01:28:13;27.50;;;14.30;;
11984;SDS011;6052;53.246;10.368;2024-03-02T01:30:43;27.43;;;14.90;;
11984;SDS011;6052;53.246;10.368;2024-03-02T01:33:13;26.70;;;14.53;;
11984;SDS011;6052;53.246;10.368;2024-03-02T01:35:44;26.13;;;15.27;;
11984;SDS011;6052;53.246;10.368;2024-03-02T01:38:14;29.37;;;14.80;;
11984;SDS011;6052;53.246;10.368;2024-03-02T01:40:44;24.87;;;14.00;;
11984;SDS011;6052;53.246;10.368;2024-03-02T01:43:19;24.70;;;13.60;;
11984;SDS011;6052;53.246;10.368;2024-03-02T01:45:51;29.67;;;15.47;;
11984;SDS011;6052;53.246;10.368;2024-03-02T01:48:21;27.73;;;14.53;;
11984;SDS011;6052;53.246;10.368;2024-03-02T01:50:56;28.30;;;14.03;;
11984;SDS011;6052;53.246;10.368;2024-03-02T01:53:26;29.23;;;14.47;;
11984;SDS011;6052;53.246;10.368;2024-03-02T01:55:57;28.40;;;15.10;;
11984;SDS011;6052;53.246;10.368;2024-03-02T01:58:30;27.37;;;14.53;;
11984;SDS011;6052;53.246;10.368;2024-03-02T02:01:02;26.50;;;14.77;;
11984;SDS011;6052;53.246;10.368;2024-03-02T02:03:32;26.40;;;13.60;;
11984;SDS011;6052;53.246;10.368;2024-03-02T02:06:06;32.07;;;15.00;;
11984;SDS011;6052;53.246;10.368;2024-03-02T02:08:37;24.13;;;13.33;;
11984;SDS011;6052;53.246;10.368;2024-03-02T02:11:10;26.80;;;14.50;;
11984;SDS011;6052;53.246;10.368;2024-03-02T02:13:43;27.27;;;14.77;;
11984;SDS011;6052;53.246;10.368;2024-03-02T02:16:13;27.27;;;15.03;;
11984;SDS011;6052;53.246;10.368;2024-03-02T02:18:43;24.97;;;14.40;;
11984;SDS011;6052;53.246;10.368;2024-03-02T02:21:14;25.87;;;14.30;;
11984;SDS011;6052;53.246;10.368;2024-03-02T02:23:46;28.70;;;15.17;;
11984;SDS011;6052;53.246;10.368;2024-03-02T02:26:16;26.80;;;14.57;;
11984;SDS011;6052;53.246;10.368;2024-03-02T02:28:46;31.07;;;15.03;;
11984;SDS011;6052;53.246;10.368;2024-03-02T02:31:16;26.97;;;14.57;;
11984;SDS011;6052;53.246;10.368;2024-03-02T02:33:46;27.93;;;14.33;;
11984;SDS011;6052;53.246;10.368;2024-03-02T02:36:16;27.50;;;15.10;;
11984;SDS011;6052;53.246;10.368;2024-03-02T02:38:49;24.23;;;13.87;;
11984;SDS011;6052;53.246;10.368;2024-03-02T02:41:19;28.73;;;13.90;;
11984;SDS011;6052;53.246;10.368;2024-03-02T02:43:49;27.50;;;14.20;;
11984;SDS011;6052;53.246;10.368;2024-03-02T02:46:18;28.73;;;14.53;;
11984;SDS011;6052;53.246;10.368;2024-03-02T02:48:48;27.13;;;14.83;;
11984;SDS011;6052;53.246;10.368;2024-03-02T02:51:19;24.97;;;14.47;;
11984;SDS011;6052;53.246;10.368;2024-03-02T02:53:53;24.00;;;13.80;;
11984;SDS011;6052;53.246;10.368;2024-03-02T02:56:22;29.07;;;14.53;;
11984;SDS011;6052;53.246;10.368;2024-03-02T02:58:52;27.63;;;14.10;;
11984;SDS011;6052;53.246;10.368;2024-03-02T03:01:22;26.93;;;14.37;;
11984;SDS011;6052;53.246;10.368;2024-03-02T03:03:52;26.60;;;13.90;;
11984;SDS011;6052;53.246;10.368;2024-03-02T03:06:22;22.90;;;14.13;;
11984;SDS011;6052;53.246;10.368;2024-03-02T03:08:54;26.93;;;14.50;;
11984;SDS011;6052;53.246;10.368;2024-03-02T03:11:24;25.93;;;14.20;;
11984;SDS011;6052;53.246;10.368;2024-03-02T03:13:54;26.37;;;14.83;;
11984;SDS011;6052;53.246;10.368;2024-03-02T03:16:24;28.23;;;15.03;;
11984;SDS011;6052;53.246;10.368;2024-03-02T03:18:54;28.67;;;13.73;;
11984;SDS011;6052;53.246;10.368;2024-03-02T03:21:24;26.90;;;13.97;;
11984;SDS011;6052;53.246;10.368;2024-03-02T03:23:56;25.47;;;14.93;;
11984;SDS011;6052;53.246;10.368;2024-03-02T03:26:26;27.53;;;14.57;;
11984;SDS011;6052;53.246;10.368;2024-03-02T03:28:56;22.33;;;13.40;;
11984;SDS011;6052;53.246;10.368;2024-03-02T03:31:29;28.50;;;14.87;;
11984;SDS011;6052;53.246;10.368;2024-03-02T03:33:59;26.60;;;14.73;;
11984;SDS011;6052;53.246;10.368;2024-03-02T03:36:29;30.47;;;14.43;;
11984;SDS011;6052;53.246;10.368;2024-03-02T03:39:06;25.23;;;12.97;;
11984;SDS011;6052;53.246;10.368;2024-03-02T03:41:36;26.50;;;14.20;;
11984;SDS011;6052;53.246;10.368;2024-03-02T03:44:06;28.77;;;14.73;;
11984;SDS011;6052;53.246;10.368;2024-03-02T03:46:36;25.43;;;13.57;;
11984;SDS011;6052;53.246;10.368;2024-03-02T03:49:06;26.97;;;13.90;;
11984;SDS011;6052;53.246;10.368;2024-03-02T03:51:36;24.50;;;13.00;;
11984;SDS011;6052;53.246;10.368;2024-03-02T03:54:08;25.87;;;13.53;;
11984;SDS011;6052;53.246;10.368;2024-03-02T03:56:39;23.70;;;13.87;;
11984;SDS011;6052;53.246;10.368;2024-03-02T03:59:09;26.10;;;13.33;;
11984;SDS011;6052;53.246;10.368;2024-03-02T04:01:39;25.63;;;14.60;;
11984;SDS011;6052;53.246;10.368;2024-03-02T04:04:09;24.03;;;13.47;;
11984;SDS011;6052;53.246;10.368;2024-03-02T04:06:39;23.73;;;13.73;;
11984;SDS011;6052;53.246;10.368;2024-03-02T04:09:11;24.73;;;13.07;;
11984;SDS011;6052;53.246;10.368;2024-03-02T04:11:41;25.63;;;13.80;;
11984;SDS011;6052;53.246;10.368;2024-03-02T04:14:12;26.67;;;14.07;;
11984;SDS011;6052;53.246;10.368;2024-03-02T04:16:46;24.20;;;14.03;;
11984;SDS011;6052;53.246;10.368;2024-03-02T04:19:16;31.00;;;15.00;;
11984;SDS011;6052;53.246;10.368;2024-03-02T04:21:45;25.50;;;14.00;;
11984;SDS011;6052;53.246;10.368;2024-03-02T04:24:18;26.97;;;13.83;;
11984;SDS011;6052;53.246;10.368;2024-03-02T04:26:48;24.17;;;14.17;;
11984;SDS011;6052;53.246;10.368;2024-03-02T04:29:18;24.77;;;13.27;;
11984;SDS011;6052;53.246;10.368;2024-03-02T04:31:48;22.50;;;12.97;;
11984;SDS011;6052;53.246;10.368;2024-03-02T04:34:20;24.10;;;12.80;;
11984;SDS011;6052;53.246;10.368;2024-03-02T04:36:50;26.67;;;13.67;;
11984;SDS011;6052;53.246;10.368;2024-03-02T04:39:22;24.60;;;14.03;;
11984;SDS011;6052;53.246;10.368;2024-03-02T04:41:56;21.83;;;13.03;;
11984;SDS011;6052;53.246;10.368;2024-03-02T04:44:27;24.13;;;13.37;;
11984;SDS011;6052;53.246;10.368;2024-03-02T04:46:57;23.73;;;12.53;;
11984;SDS011;6052;53.246;10.368;2024-03-02T04:49:40;24.67;;;13.67;;
11984;SDS011;6052;53.246;10.368;2024-03-02T04:52:10;22.97;;;13.03;;
11984;SDS011;6052;53.246;10.368;2024-03-02T04:54:43;21.33;;;13.20;;
11984;SDS011;6052;53.246;10.368;2024-03-02T04:57:26;23.83;;;12.67;;
11984;SDS011;6052;53.246;10.368;2024-03-02T04:59:56;21.83;;;12.53;;
11984;SDS011;6052;53.246;10.368;2024-03-02T05:02:27;24.03;;;13.60;;
11984;SDS011;6052;53.246;10.368;2024-03-02T05:04:57;23.83;;;12.57;;
11984;SDS011;6052;53.246;10.368;2024-03-02T05:07:27;22.50;;;12.77;;
11984;SDS011;6052;53.246;10.368;2024-03-02T05:10:00;24.20;;;13.67;;
11984;SDS011;6052;53.246;10.368;2024-03-02T05:12:30;24.23;;;12.30;;
11984;SDS011;6052;53.246;10.368;2024-03-02T05:15:13;27.77;;;13.47;;
11984;SDS011;6052;53.246;10.368;2024-03-02T05:17:44;25.20;;;12.90;;
11984;SDS011;6052;53.246;10.368;2024-03-02T05:20:17;23.90;;;13.83;;
11984;SDS011;6052;53.246;10.368;2024-03-02T05:22:47;21.47;;;12.80;;
11984;SDS011;6052;53.246;10.368;2024-03-02T05:25:19;24.53;;;13.37;;
11984;SDS011;6052;53.246;10.368;2024-03-02T05:27:52;24.30;;;12.23;;
11984;SDS011;6052;53.246;10.368;2024-03-02T05:30:22;22.77;;;12.93;;
11984;SDS011;6052;53.246;10.368;2024-03-02T05:32:53;25.33;;;12.70;;
11984;SDS011;6052;53.246;10.368;2024-03-02T05:35:23;27.07;;;13.60;;
11984;SDS011;6052;53.246;10.368;2024-03-02T05:37:53;25.07;;;13.23;;
11984;SDS011;6052;53.246;10.368;2024-03-02T05:40:29;22.20;;;12.70;;
11984;SDS011;6052;53.246;10.368;2024-03-02T05:43:05;24.43;;;13.20;;
11984;SDS011;6052;53.246;10.368;2024-03-02T05:45:36;24.13;;;13.50;;
11984;SDS011;6052;53.246;10.368;2024-03-02T05:48:07;22.63;;;12.97;;
11984;SDS011;6052;53.246;10.368;2024-03-02T05:50:57;27.17;;;13.43;;
11984;SDS011;6052;53.246;10.368;2024-03-02T05:53:32;25.50;;;13.73;;
11984;SDS011;6052;53.246;10.368;2024-03-02T05:56:07;25.93;;;13.90;;
11984;SDS011;6052;53.246;10.368;2024-03-02T05:58:38;23.73;;;13.57;;
11984;SDS011;6052;53.246;10.368;2024-03-02T06:01:24;25.67;;;13.73;;
11984;SDS011;6052;53.246;10.368;2024-03-02T06:03:57;25.13;;;14.13;;
11984;SDS011;6052;53.246;10.368;2024-03-02T06:06:32;26.50;;;13.80;;
11984;SDS011;6052;53.246;10.368;2024-03-02T06:09:06;23.13;;;13.87;;
11984;SDS011;6052;53.246;10.368;2024-03-02T06:11:41;23.63;;;13.53;;
11984;SDS011;6052;53.246;10.368;2024-03-02T06:14:11;24.27;;;13.20;;
11984;SDS011;6052;53.246;10.368;2024-03-02T06:16:41;25.67;;;14.70;;
11984;SDS011;6052;53.246;10.368;2024-03-02T06:19:11;25.33;;;13.80;;
11984;SDS011;6052;53.246;10.368;2024-03-02T06:21:41;26.20;;;14.23;;
11984;SDS011;6052;53.246;10.368;2024-03-02T06:24:11;26.83;;;14.30;;
11984;SDS011;6052;53.246;10.368;2024-03-02T06:26:44;23.77;;;13.67;;
11984;SDS011;6052;53.246;10.368;2024-03-02T06:29:14;30.37;;;14.43;;
11984;SDS011;6052;53.246;10.368;2024-03-02T06:31:43;20.83;;;13.40;;
11984;SDS011;6052;53.246;10.368;2024-03-02T06:34:15;22.83;;;13.70;;
11984;SDS011;6052;53.246;10.368;2024-03-02T06:36:45;23.20;;;14.33;;
11984;SDS011;6052;53.246;10.368;2024-03-02T06:39:15;28.90;;;13.63;;
11984;SDS011;6052;53.246;10.368;2024-03-02T06:41:47;31.53;;;15.43;;
11984;SDS011;6052;53.246;10.368;2024-03-02T06:44:18;25.33;;;14.17;;
11984;SDS011;6052;53.246;10.368;2024-03-02T06:46:47;25.03;;;13.80;;
11984;SDS011;6052;53.246;10.368;2024-03-02T06:49:17;26.77;;;14.90;;
11984;SDS011;6052;53.246;10.368;2024-03-02T06:51:47;23.37;;;13.43;;
11984;SDS011;6052;53.246;10.368;2024-03-02T06:54:19;25.03;;;14.23;;
11984;SDS011;6052;53.246;10.368;2024-03-02T06:56:51;29.40;;;14.00;;
11984;SDS011;6052;53.246;10.368;2024-03-02T06:59:21;30.83;;;14.50;;
11984;SDS011;6052;53.246;10.368;2024-03-02T07:01:51;31.80;;;15.03;;
11984;SDS011;6052;53.246;10.368;2024-03-02T07:04:21;25.53;;;14.33;;
11984;SDS011;6052;53.246;10.368;2024-03-02T07:06:51;27.30;;;14.00;;
11984;SDS011;6052;53.246;10.368;2024-03-02T07:09:21;28.53;;;14.40;;
11984;SDS011;6052;53.246;10.368;2024-03-02T07:11:55;28.00;;;14.63;;
11984;SDS011;6052;53.246;10.368;2024-03-02T07:14:24;25.70;;;14.37;;
11984;SDS011;6052;53.246;10.368;2024-03-02T07:17:14;26.93;;;14.27;;
11984;SDS011;6052;53.246;10.368;2024-03-02T07:19:44;24.50;;;14.20;;
11984;SDS011;6052;53.246;10.368;2024-03-02T07:22:14;25.33;;;14.73;;
11984;SDS011;6052;53.246;10.368;2024-03-02T07:24:44;29.53;;;14.70;;
11984;SDS011;6052;53.246;10.368;2024-03-02T07:27:18;25.70;;;13.83;;
11984;SDS011;6052;53.246;10.368;2024-03-02T07:29:48;27.10;;;14.37;;
11984;SDS011;6052;53.246;10.368;2024-03-02T07:32:18;27.03;;;14.20;;
11984;SDS011;6052;53.246;10.368;2024-03-02T07:34:47;29.77;;;14.47;;
11984;SDS011;6052;53.246;10.368;2024-03-02T07:37:17;26.67;;;14.20;;
11984;SDS011;6052;53.246;10.368;2024-03-02T07:39:47;24.77;;;13.93;;
11984;SDS011;6052;53.246;10.368;2024-03-02T07:42:20;27.23;;;14.47;;
11984;SDS011;6052;53.246;10.368;2024-03-02T07:44:49;28.93;;;14.57;;
11984;SDS011;6052;53.246;10.368;2024-03-02T07:47:19;27.87;;;15.00;;
11984;SDS011;6052;53.246;10.368;2024-03-02T07:49:49;27.37;;;13.70;;
11984;SDS011;6052;53.246;10.368;2024-03-02T07:52:19;29.43;;;15.70;;
11984;SDS011;6052;53.246;10.368;2024-03-02T07:54:49;29.60;;;15.37;;
11984;SDS011;6052;53.246;10.368;2024-03-02T07:57:21;25.77;;;14.90;;
11984;SDS011;6052;53.246;10.368;2024-03-02T07:59:51;26.57;;;15.27;;
11984;SDS011;6052;53.246;10.368;2024-03-02T08:02:21;24.87;;;14.53;;
11984;SDS011;6052;53.246;10.368;2024-03-02T08:04:51;27.97;;;15.23;;
11984;SDS011;6052;53.246;10.368;2024-03-02T08:07:21;28.70;;;15.70;;
11984;SDS011;6052;53.246;10.368;2024-03-02T08:09:51;30.23;;;15.97;;
11984;SDS011;6052;53.246;10.368;2024-03-02T08:12:23;28.40;;;14.83;;
11984;SDS011;6052;53.246;10.368;2024-03-02T08:14:53;25.00;;;14.97;;
11984;SDS011;6052;53.246;10.368;2024-03-02T08:17:22;26.73;;;15.27;;
11984;SDS011;6052;53.246;10.368;2024-03-02T08:19:52;27.67;;;15.10;;
11984;SDS011;6052;53.246;10.368;2024-03-02T08:22:23;27.03;;;15.63;;
11984;SDS011;6052;53.246;10.368;2024-03-02T08:24:53;28.43;;;15.47;;
11984;SDS011;6052;53.246;10.368;2024-03-02T08:27:26;29.63;;;15.03;;
11984;SDS011;6052;53.246;10.368;2024-03-02T08:29:56;21.40;;;13.27;;
11984;SDS011;6052;53.246;10.368;2024-03-02T08:32:26;27.23;;;15.07;;
11984;SDS011;6052;53.246;10.368;2024-03-02T08:34:56;26.50;;;14.17;;
11984;SDS011;6052;53.246;10.368;2024-03-02T08:37:26;26.03;;;15.00;;
11984;SDS011;6052;53.246;10.368;2024-03-02T08:39:56;24.73;;;13.63;;
11984;SDS011;6052;53.246;10.368;2024-03-02T08:42:29;24.47;;;13.63;;
11984;SDS011;6052;53.246;10.368;2024-03-02T08:44:59;24.33;;;14.23;;
11984;SDS011;6052;53.246;10.368;2024-03-02T08:47:29;24.80;;;13.70;;
11984;SDS011;6052;53.246;10.368;2024-03-02T08:49:59;22.23;;;13.07;;
11984;SDS011;6052;53.246;10.368;2024-03-02T08:52:30;26.00;;;14.50;;
11984;SDS011;6052;53.246;10.368;2024-03-02T08:55:00;25.40;;;12.97;;
11984;SDS011;6052;53.246;10.368;2024-03-02T08:57:32;20.60;;;11.97;;
11984;SDS011;6052;53.246;10.368;2024-03-02T09:00:03;20.80;;;12.40;;
11984;SDS011;6052;53.246;10.368;2024-03-02T09:02:34;19.47;;;11.83;;
11984;SDS011;6052;53.246;10.368;2024-03-02T09:05:04;21.50;;;12.83;;
11984;SDS011;6052;53.246;10.368;2024-03-02T09:07:35;22.88;;;11.75;;
11984;SDS011;6052;53.246;10.368;2024-03-02T09:10:05;19.20;;;12.30;;
11984;SDS011;6052;53.246;10.368;2024-03-02T09:12:38;17.77;;;11.15;;
11984;SDS011;6052;53.246;10.368;2024-03-02T09:15:08;18.27;;;11.38;;
11984;SDS011;6052;53.246;10.368;2024-03-02T09:17:38;19.23;;;11.00;;
11984;SDS011;6052;53.246;10.368;2024-03-02T09:20:09;18.10;;;11.07;;
11984;SDS011;6052;53.246;10.368;2024-03-02T09:22:40;18.30;;;11.23;;
11984;SDS011;6052;53.246;10.368;2024-03-02T09:25:10;18.80;;;9.88;;
11984;SDS011;6052;53.246;10.368;2024-03-02T09:27:43;17.40;;;9.93;;
11984;SDS011;6052;53.246;10.368;2024-03-02T09:30:13;16.00;;;9.88;;
11984;SDS011;6052;53.246;10.368;2024-03-02T09:32:43;18.58;;;11.43;;
11984;SDS011;6052;53.246;10.368;2024-03-02T09:35:16;19.20;;;10.38;;
11984;SDS011;6052;53.246;10.368;2024-03-02T09:37:46;14.43;;;10.02;;
11984;SDS011;6052;53.246;10.368;2024-03-02T09:40:16;16.33;;;10.15;;
11984;SDS011;6052;53.246;10.368;2024-03-02T09:42:48;16.45;;;9.85;;
11984;SDS011;6052;53.246;10.368;2024-03-02T09:45:20;14.30;;;9.15;;
11984;SDS011;6052;53.246;10.368;2024-03-02T09:47:53;16.85;;;8.98;;
11984;SDS011;6052;53.246;10.368;2024-03-02T09:50:24;17.00;;;9.02;;
11984;SDS011;6052;53.246;10.368;2024-03-02T09:52:53;15.52;;;9.43;;
11984;SDS011;6052;53.246;10.368;2024-03-02T09:55:23;12.85;;;8.95;;
11984;SDS011;6052;53.246;10.368;2024-03-02T09:57:56;17.55;;;9.52;;
11984;SDS011;6052;53.246;10.368;2024-03-02T10:00:33;14.52;;;8.63;;
11984;SDS011;6052;53.246;10.368;2024-03-02T10:03:37;12.90;;;8.13;;
11984;SDS011;6052;53.246;10.368;2024-03-02T10:06:21;13.43;;;8.05;;
11984;SDS011;6052;53.246;10.368;2024-03-02T10:08:56;23.23;;;9.25;;
11984;SDS011;6052;53.246;10.368;2024-03-02T10:11:35;14.85;;;8.98;;
11984;SDS011;6052;53.246;10.368;2024-03-02T10:14:34;17.85;;;9.15;;
11984;SDS011;6052;53.246;10.368;2024-03-02T10:17:49;16.63;;;9.68;;
11984;SDS011;6052;53.246;10.368;2024-03-02T10:26:06;14.75;;;9.05;;
11984;SDS011;6052;53.246;10.368;2024-03-02T10:32:34;16.67;;;9.52;;
11984;SDS011;6052;53.246;10.368;2024-03-02T10:35:13;16.10;;;9.55;;
11984;SDS011;6052;53.246;10.368;2024-03-02T10:37:50;14.70;;;9.40;;
11984;SDS011;6052;53.246;10.368;2024-03-02T10:40:24;15.02;;;9.43;;
11984;SDS011;6052;53.246;10.368;2024-03-02T10:42:54;16.13;;;9.48;;
11984;SDS011;6052;53.246;10.368;2024-03-02T10:45:28;15.05;;;9.40;;
11984;SDS011;6052;53.246;10.368;2024-03-02T10:48:02;19.75;;;12.05;;
11984;SDS011;6052;53.246;10.368;2024-03-02T10:50:34;14.45;;;8.80;;
11984;SDS011;6052;53.246;10.368;2024-03-02T10:53:06;13.32;;;8.63;;
11984;SDS011;6052;53.246;10.368;2024-03-02T10:55:37;15.02;;;8.93;;
11984;SDS011;6052;53.246;10.368;2024-03-02T10:58:07;15.88;;;9.15;;
11984;SDS011;6052;53.246;10.368;2024-03-02T11:00:56;13.50;;;8.63;;
11984;SDS011;6052;53.246;10.368;2024-03-02T11:03:29;12.85;;;8.63;;
11984;SDS011;6052;53.246;10.368;2024-03-02T11:06:05;14.90;;;8.77;;
11984;SDS011;6052;53.246;10.368;2024-03-02T11:08:43;13.98;;;8.50;;
11984;SDS011;6052;53.246;10.368;2024-03-02T11:11:21;11.52;;;7.85;;
11984;SDS011;6052;53.246;10.368;2024-03-02T11:14:01;12.05;;;8.50;;
11984;SDS011;6052;53.246;10.368;2024-03-02T11:16:50;13.27;;;8.40;;
11984;SDS011;6052;53.246;10.368;2024-03-02T11:19:22;12.95;;;8.32;;
11984;SDS011;6052;53.246;10.368;2024-03-02T11:21:58;14.05;;;8.63;;
11984;SDS011;6052;53.246;10.368;2024-03-02T11:24:30;13.82;;;9.07;;
11984;SDS011;6052;53.246;10.368;2024-03-02T11:27:04;14.68;;;9.02;;
11984;SDS011;6052;53.246;10.368;2024-03-02T11:29:44;14.00;;;9.60;;
11984;SDS011;6052;53.246;10.368;2024-03-02T11:32:19;17.17;;;9.48;;
11984;SDS011;6052;53.246;10.368;2024-03-02T11:34:50;15.55;;;9.25;;
11984;SDS011;6052;53.246;10.368;2024-03-02T11:37:21;13.70;;;9.30;;
11984;SDS011;6052;53.246;10.368;2024-03-02T11:39:51;13.55;;;9.23;;
11984;SDS011;6052;53.246;10.368;2024-03-02T11:42:21;13.52;;;8.80;;
11984;SDS011;6052;53.246;10.368;2024-03-02T11:44:51;14.15;;;8.93;;
11984;SDS011;6052;53.246;10.368;2024-03-02T11:47:23;17.17;;;9.38;;
11984;SDS011;6052;53.246;10.368;2024-03-02T11:50:04;14.98;;;8.48;;
11984;SDS011;6052;53.246;10.368;2024-03-02T11:52:36;14.20;;;9.05;;
11984;SDS011;6052;53.246;10.368;2024-03-02T11:55:07;12.48;;;8.20;;
11984;SDS011;6052;53.246;10.368;2024-03-02T11:57:38;16.80;;;9.50;;
11984;SDS011;6052;53.246;10.368;2024-03-02T12:00:16;14.45;;;9.10;;
11984;SDS011;6052;53.246;10.368;2024-03-02T12:02:58;13.65;;;8.70;;
11984;SDS011;6052;53.246;10.368;2024-03-02T12:05:29;13.05;;;8.55;;
11984;SDS011;6052;53.246;10.368;2024-03-02T12:08:00;13.10;;;9.07;;
11984;SDS011;6052;53.246;10.368;2024-03-02T12:10:31;14.80;;;8.75;;
11984;SDS011;6052;53.246;10.368;2024-03-02T12:13:02;13.45;;;8.63;;
11984;SDS011;6052;53.246;10.368;2024-03-02T12:15:34;13.82;;;8.75;;
11984;SDS011;6052;53.246;10.368;2024-03-02T12:18:08;11.95;;;8.35;;
11984;SDS011;6052;53.246;10.368;2024-03-02T12:20:38;13.93;;;8.50;;
11984;SDS011;6052;53.246;10.368;2024-03-02T12:23:08;15.20;;;9.15;;
11984;SDS011;6052;53.246;10.368;2024-03-02T12:25:41;14.10;;;8.82;;
11984;SDS011;6052;53.246;10.368;2024-03-02T12:28:10;13.27;;;7.75;;
11984;SDS011;6052;53.246;10.368;2024-03-02T12:30:40;12.55;;;7.90;;
11984;SDS011;6052;53.246;10.368;2024-03-02T12:33:13;12.38;;;8.27;;
11984;SDS011;6052;53.246;10.368;2024-03-02T12:35:43;9.32;;;6.72;;
11984;SDS011;6052;53.246;10.368;2024-03-02T12:38:13;11.05;;;6.47;;
11984;SDS011;6052;53.246;10.368;2024-03-02T12:40:44;10.98;;;6.40;;
11984;SDS011;6052;53.246;10.368;2024-03-02T12:43:14;8.82;;;5.57;;
11984;SDS011;6052;53.246;10.368;2024-03-02T12:45:43;10.05;;;5.72;;
11984;SDS011;6052;53.246;10.368;2024-03-02T12:48:16;7.53;;;5.78;;
11984;SDS011;6052;53.246;10.368;2024-03-02T12:50:46;10.65;;;5.85;;
11984;SDS011;6052;53.246;10.368;2024-03-02T12:53:16;8.60;;;6.18;;
11984;SDS011;6052;53.246;10.368;2024-03-02T12:55:46;9.77;;;5.88;;
11984;SDS011;6052;53.246;10.368;2024-03-02T12:58:18;8.90;;;6.00;;
11984;SDS011;6052;53.246;10.368;2024-03-02T13:00:48;14.07;;;6.72;;
11984;SDS011;6052;53.246;10.368;2024-03-02T13:03:21;8.80;;;5.70;;
11984;SDS011;6052;53.246;10.368;2024-03-02T13:05:51;9.23;;;6.45;;
11984;SDS011;6052;53.246;10.368;2024-03-02T13:08:21;10.73;;;6.55;;
11984;SDS011;6052;53.246;10.368;2024-03-02T13:10:51;11.77;;;6.15;;
11984;SDS011;6052;53.246;10.368;2024-03-02T13:13:21;10.23;;;6.88;;
11984;SDS011;6052;53.246;10.368;2024-03-02T13:15:54;8.27;;;5.82;;
11984;SDS011;6052;53.246;10.368;2024-03-02T13:18:27;11.65;;;6.68;;
11984;SDS011;6052;53.246;10.368;2024-03-02T13:20:58;9.52;;;6.13;;
11984;SDS011;6052;53.246;10.368;2024-03-02T13:23:27;11.80;;;6.43;;
11984;SDS011;6052;53.246;10.368;2024-03-02T13:25:58;10.30;;;6.55;;
11984;SDS011;6052;53.246;10.368;2024-03-02T13:28:28;9.93;;;5.90;;
11984;SDS011;6052;53.246;10.368;2024-03-02T13:30:57;9.10;;;6.05;;
11984;SDS011;6052;53.246;10.368;2024-03-02T13:33:30;10.07;;;6.65;;
11984;SDS011;6052;53.246;10.368;2024-03-02T13:36:00;12.07;;;7.05;;
11984;SDS011;6052;53.246;10.368;2024-03-02T13:38:30;11.05;;;6.93;;
11984;SDS011;6052;53.246;10.368;2024-03-02T13:40:59;9.73;;;6.57;;
11984;SDS011;6052;53.246;10.368;2024-03-02T13:43:29;12.27;;;7.63;;
11984;SDS011;6052;53.246;10.368;2024-03-02T13:46:01;13.27;;;7.43;;
11984;SDS011;6052;53.246;10.368;2024-03-02T13:48:34;10.00;;;6.53;;
11984;SDS011;6052;53.246;10.368;2024-03-02T13:51:04;11.07;;;6.78;;
11984;SDS011;6052;53.246;10.368;2024-03-02T13:53:34;11.05;;;7.47;;
11984;SDS011;6052;53.246;10.368;2024-03-02T13:56:04;12.23;;;7.80;;
11984;SDS011;6052;53.246;10.368;2024-03-02T13:58:35;15.02;;;7.13;;
11984;SDS011;6052;53.246;10.368;2024-03-02T14:01:05;10.82;;;7.10;;
11984;SDS011;6052;53.246;10.368;2024-03-02T14:03:37;11.18;;;7.53;;
11984;SDS011;6052;53.246;10.368;2024-03-02T14:06:07;10.98;;;6.75;;
11984;SDS011;6052;53.246;10.368;2024-03-02T14:08:37;12.57;;;7.28;;
11984;SDS011;6052;53.246;10.368;2024-03-02T14:11:07;12.00;;;6.95;;
11984;SDS011;6052;53.246;10.368;2024-03-02T14:13:41;11.35;;;6.88;;
11984;SDS011;6052;53.246;10.368;2024-03-02T14:16:14;9.70;;;6.07;;
11984;SDS011;6052;53.246;10.368;2024-03-02T14:18:47;9.82;;;6.32;;
11984;SDS011;6052;53.246;10.368;2024-03-02T14:21:17;9.60;;;6.70;;
11984;SDS011;6052;53.246;10.368;2024-03-02T14:23:47;11.15;;;6.95;;
11984;SDS011;6052;53.246;10.368;2024-03-02T14:26:16;10.38;;;6.32;;
11984;SDS011;6052;53.246;10.368;2024-03-02T14:28:46;8.38;;;5.38;;
11984;SDS011;6052;53.246;10.368;2024-03-02T14:31:19;11.13;;;7.10;;
11984;SDS011;6052;53.246;10.368;2024-03-02T14:33:54;9.88;;;6.15;;
11984;SDS011;6052;53.246;10.368;2024-03-02T14:36:24;10.18;;;5.90;;
11984;SDS011;6052;53.246;10.368;2024-03-02T14:38:55;8.68;;;5.70;;
11984;SDS011;6052;53.246;10.368;2024-03-02T14:41:25;7.93;;;5.22;;
11984;SDS011;6052;53.246;10.368;2024-03-02T14:43:54;8.57;;;5.57;;
11984;SDS011;6052;53.246;10.368;2024-03-02T14:46:24;9.73;;;5.57;;
11984;SDS011;6052;53.246;10.368;2024-03-02T14:48:57;7.22;;;5.68;;
11984;SDS011;6052;53.246;10.368;2024-03-02T14:51:27;9.15;;;5.30;;
11984;SDS011;6052;53.246;10.368;2024-03-02T14:53:56;7.13;;;5.20;;
11984;SDS011;6052;53.246;10.368;2024-03-02T14:56:26;9.15;;;4.95;;
11984;SDS011;6052;53.246;10.368;2024-03-02T14:58:56;17.77;;;6.00;;
11984;SDS011;6052;53.246;10.368;2024-03-02T15:01:26;7.78;;;4.50;;
11984;SDS011;6052;53.246;10.368;2024-03-02T15:03:58;9.40;;;5.22;;
11984;SDS011;6052;53.246;10.368;2024-03-02T15:06:28;7.85;;;4.93;;